Time;durP1;ratioP1;P1;durP2;ratioP2;P2;SDS_P1;SDS_P2;PMS_P1;PMS_P2;Temp;Humidity;BMP_temperature;BMP_pressure;BME280_temperature;BME280_humidity;BME280_pressure;Samples;Min_cycle;Max_cycle;Signal;HPM_P1;HPM_P2
2021/11/11 00:02:08;;;;;;;14.52;7.38;;;3.50;99.90;;;;;;5089203;28;20099;-94
2021/11/11 00:04:34;;;;;;;17.17;8.40;;;3.50;99.90;;;;;;5089629;28;20039;-93
2021/11/11 00:07:02;;;;;;;21.52;10.00;;;3.40;99.90;;;;;;5089519;28;20036;-94
2021/11/11 00:09:31;;;;;;;18.45;8.52;;;3.40;99.90;;;;;;5089604;28;20024;-94
2021/11/11 00:11:57;;;;;;;16.60;8.00;;;3.40;99.90;;;;;;5089368;28;20032;-94
2021/11/11 00:14:23;;;;;;;20.65;8.73;;;3.30;99.90;;;;;;5084677;28;20043;-93
2021/11/11 00:16:49;;;;;;;14.38;7.75;;;3.20;99.90;;;;;;5088994;28;20051;-93
2021/11/11 00:19:15;;;;;;;12.23;7.43;;;3.20;99.90;;;;;;5089348;28;20043;-94
2021/11/11 00:21:41;;;;;;;16.58;8.45;;;3.10;99.90;;;;;;5089180;28;20095;-94
2021/11/11 00:24:07;;;;;;;14.85;8.50;;;3.10;99.90;;;;;;5087392;28;20101;-94
2021/11/11 00:26:33;;;;;;;13.57;7.57;;;3.10;99.90;;;;;;5088998;28;20039;-93
2021/11/11 00:28:59;;;;;;;16.08;8.15;;;3.00;99.90;;;;;;5089034;28;20115;-94
2021/11/11 00:31:25;;;;;;;15.25;8.02;;;3.00;99.90;;;;;;5089037;28;20472;-93
2021/11/11 00:33:52;;;;;;;17.25;8.15;;;3.10;99.90;;;;;;5088850;28;20054;-93
2021/11/11 00:36:18;;;;;;;14.45;8.65;;;3.20;99.90;;;;;;5089058;28;20051;-94
2021/11/11 00:38:44;;;;;;;16.83;8.50;;;3.20;99.90;;;;;;5087839;28;20058;-94
2021/11/11 00:41:10;;;;;;;17.05;8.75;;;3.20;99.90;;;;;;5068187;28;20036;-93
2021/11/11 00:43:37;;;;;;;16.40;8.27;;;3.30;99.90;;;;;;5100611;28;20027;-94
2021/11/11 00:46:04;;;;;;;16.73;7.47;;;3.20;99.90;;;;;;5088697;28;20024;-93
2021/11/11 00:48:33;;;;;;;14.75;8.00;;;3.20;99.90;;;;;;5079860;22;20060;-94
2021/11/11 00:50:59;;;;;;;15.48;8.52;;;3.20;99.90;;;;;;5049014;28;20029;-90
2021/11/11 00:53:25;;;;;;;16.95;8.48;;;3.10;99.90;;;;;;5048972;28;20040;-92
2021/11/11 00:55:51;;;;;;;15.45;8.05;;;3.20;99.90;;;;;;5048959;28;20037;-91
2021/11/11 00:58:21;;;;;;;18.67;8.57;;;3.20;99.90;;;;;;5049789;28;20123;-92
2021/11/11 01:00:47;;;;;;;16.45;8.48;;;3.10;99.90;;;;;;5048955;28;20033;-93
2021/11/11 01:03:16;;;;;;;17.83;8.65;;;2.90;99.90;;;;;;5049111;28;20029;-92
2021/11/11 01:05:43;;;;;;;16.10;7.63;;;3.00;99.90;;;;;;5065537;28;20108;-93
2021/11/11 01:08:09;;;;;;;14.73;8.15;;;2.90;99.90;;;;;;5048655;28;20057;-93
2021/11/11 01:10:35;;;;;;;12.60;6.65;;;2.80;99.90;;;;;;5049147;28;20108;-93
2021/11/11 01:13:02;;;;;;;22.17;10.90;;;3.10;99.90;;;;;;5048737;28;20060;-93
2021/11/11 01:15:30;;;;;;;19.50;9.75;;;3.00;99.90;;;;;;5048539;28;20049;-92
2021/11/11 01:17:57;;;;;;;15.43;8.77;;;2.90;99.90;;;;;;5048591;28;20029;-92
2021/11/11 01:20:23;;;;;;;16.85;8.52;;;2.80;99.90;;;;;;5048595;28;20068;-93
2021/11/11 01:22:52;;;;;;;15.15;8.00;;;2.70;99.90;;;;;;5064999;28;20044;-93
2021/11/11 01:25:21;;;;;;;15.68;7.97;;;2.60;99.90;;;;;;5048388;28;20552;-92
2021/11/11 01:27:48;;;;;;;14.15;8.23;;;2.60;99.90;;;;;;5048592;28;20165;-93
2021/11/11 01:30:19;;;;;;;16.83;9.25;;;2.60;99.90;;;;;;5049178;28;20044;-94
2021/11/11 01:32:48;;;;;;;13.77;8.27;;;2.50;99.90;;;;;;5064772;28;20437;-93
2021/11/11 01:35:16;;;;;;;14.98;8.45;;;2.50;99.90;;;;;;5048482;28;20104;-94
2021/11/11 01:37:44;;;;;;;16.85;8.52;;;2.50;99.90;;;;;;5048131;28;20029;-93
2021/11/11 01:40:15;;;;;;;15.00;8.48;;;2.50;99.90;;;;;;5068473;28;20036;-92
2021/11/11 01:42:51;;;;;;;16.45;9.07;;;2.50;99.90;;;;;;5067933;28;20025;-92
2021/11/11 01:45:27;;;;;;;17.55;7.80;;;2.50;99.90;;;;;;5068192;28;20035;-93
2021/11/11 01:47:56;;;;;;;16.23;8.48;;;2.50;99.90;;;;;;5068479;28;20056;-93
2021/11/11 01:50:26;;;;;;;16.97;8.33;;;2.40;99.90;;;;;;5068574;28;20028;-92
2021/11/11 01:52:52;;;;;;;13.57;6.90;;;2.30;99.90;;;;;;5071601;28;20281;-93
2021/11/11 01:55:19;;;;;;;14.80;7.72;;;2.30;99.90;;;;;;5071951;28;20054;-93
2021/11/11 01:57:50;;;;;;;15.98;8.73;;;2.30;99.90;;;;;;5072368;28;20033;-92
2021/11/11 02:00:24;;;;;;;16.48;8.18;;;2.30;99.90;;;;;;5071894;28;20040;-93
2021/11/11 02:02:58;;;;;;;15.65;7.88;;;2.30;99.90;;;;;;5071879;28;20029;-93
2021/11/11 02:05:45;;;;;;;12.32;6.95;;;2.20;99.90;;;;;;5076628;28;20071;-94
2021/11/11 02:08:17;;;;;;;14.20;8.20;;;2.20;99.90;;;;;;5053677;28;20021;-92
2021/11/11 02:10:44;;;;;;;15.25;7.63;;;2.10;99.90;;;;;;5051716;28;20025;-93
2021/11/11 02:13:11;;;;;;;14.63;8.30;;;2.10;99.90;;;;;;5051642;28;20035;-93
2021/11/11 02:15:38;;;;;;;16.42;9.07;;;2.20;99.90;;;;;;5051359;28;20101;-94
2021/11/11 02:18:08;;;;;;;17.73;8.23;;;2.20;99.90;;;;;;5051773;28;20051;-94
2021/11/11 02:20:43;;;;;;;15.25;7.95;;;2.20;99.90;;;;;;5051700;28;20025;-93
2021/11/11 02:23:20;;;;;;;15.35;7.90;;;2.20;99.90;;;;;;5052646;28;20025;-93
2021/11/11 02:26:08;;;;;;;14.52;7.95;;;2.20;99.90;;;;;;5054539;28;20025;-93
2021/11/11 02:28:52;;;;;;;13.38;7.43;;;2.10;99.90;;;;;;5054019;28;20318;-93
2021/11/11 02:31:22;;;;;;;14.03;7.23;;;2.10;99.90;;;;;;5051954;28;20029;-94
2021/11/11 02:33:56;;;;;;;12.30;7.00;;;2.00;99.90;;;;;;5051847;28;20370;-93
2021/11/11 02:37:01;;;;;;;16.20;8.60;;;2.00;99.90;;;;;;5055985;28;20041;-94
2021/11/11 02:39:49;;;;;;;15.10;7.40;;;2.10;99.90;;;;;;5067359;28;20026;-94
2021/11/11 02:42:19;;;;;;;14.40;7.03;;;2.00;99.90;;;;;;5051360;28;20052;-93
2021/11/11 02:44:56;;;;;;;13.82;7.45;;;2.00;99.90;;;;;;5051326;28;20140;-94
2021/11/11 02:47:32;;;;;;;12.63;6.80;;;1.90;99.90;;;;;;5051575;28;20061;-93
2021/11/11 02:50:00;;;;;;;15.32;6.88;;;1.90;99.90;;;;;;5050867;28;20048;-93
2021/11/11 02:52:29;;;;;;;13.73;7.35;;;1.90;99.90;;;;;;5050677;28;20103;-92
2021/11/11 02:55:00;;;;;;;13.02;7.68;;;2.00;99.90;;;;;;5051607;28;20083;-93
2021/11/11 02:57:35;;;;;;;14.90;7.95;;;2.00;99.90;;;;;;5051417;28;20041;-94
2021/11/11 03:00:15;;;;;;;13.27;7.15;;;2.00;99.90;;;;;;5050961;28;20033;-94
2021/11/11 03:02:47;;;;;;;12.10;6.93;;;2.00;99.90;;;;;;5050521;28;20025;-93
2021/11/11 03:05:24;;;;;;;12.15;6.00;;;1.90;99.90;;;;;;5050667;28;20485;-94
2021/11/11 03:07:53;;;;;;;13.52;6.57;;;2.00;99.90;;;;;;5050693;28;20056;-94
2021/11/11 03:10:25;;;;;;;11.55;6.53;;;1.90;99.90;;;;;;5050639;28;20040;-94
2021/11/11 03:12:57;;;;;;;12.05;6.13;;;1.90;99.90;;;;;;5050747;28;20032;-94
2021/11/11 03:15:26;;;;;;;11.63;6.60;;;1.90;99.90;;;;;;5050506;28;20037;-94
2021/11/11 03:17:59;;;;;;;11.73;6.50;;;2.00;99.90;;;;;;5051244;28;20036;-94
2021/11/11 03:20:27;;;;;;;11.23;6.72;;;2.00;99.90;;;;;;5050490;28;20025;-94
2021/11/11 03:22:59;;;;;;;11.85;6.53;;;2.10;99.90;;;;;;5050379;28;20036;-94
2021/11/11 03:25:30;;;;;;;10.65;5.88;;;2.20;99.90;;;;;;5050519;28;20035;-94
2021/11/11 03:27:57;;;;;;;15.15;6.15;;;2.20;99.90;;;;;;5061338;28;20515;-93
2021/11/11 03:30:27;;;;;;;;;;;2.30;99.90;;;;;;5071218;28;20036;-93
2021/11/11 03:32:55;;;;;;;9.88;5.15;;;2.30;99.90;;;;;;5070411;28;19915;-93
2021/11/11 03:35:23;;;;;;;11.70;5.78;;;2.40;99.90;;;;;;5070377;28;20104;-93
2021/11/11 03:37:51;;;;;;;11.55;6.13;;;2.40;99.90;;;;;;5070191;28;20041;-93
2021/11/11 03:40:25;;;;;;;12.55;7.00;;;2.60;99.90;;;;;;5070348;28;20100;-94
2021/11/11 03:42:53;;;;;;;12.05;6.03;;;2.60;99.90;;;;;;5069948;28;20021;-93
2021/11/11 03:45:22;;;;;;;12.25;6.47;;;2.60;99.90;;;;;;5070293;28;20029;-94
2021/11/11 03:47:49;;;;;;;9.20;5.72;;;2.60;99.90;;;;;;5069643;28;20037;-94
2021/11/11 03:50:16;;;;;;;9.88;6.10;;;2.60;99.90;;;;;;5069620;28;20033;-94
2021/11/11 03:52:43;;;;;;;12.43;8.10;;;2.50;99.90;;;;;;5069472;28;20021;-93
2021/11/11 03:55:12;;;;;;;15.20;6.50;;;2.50;99.90;;;;;;5062594;28;20044;-93
2021/11/11 03:57:39;;;;;;;13.45;7.05;;;2.50;99.90;;;;;;5049811;28;20037;-93
2021/11/11 04:00:11;;;;;;;12.30;6.43;;;2.50;99.90;;;;;;5049572;28;20036;-93
2021/11/11 04:02:40;;;;;;;13.68;7.43;;;2.50;99.90;;;;;;5066247;28;20088;-93
2021/11/11 04:05:08;;;;;;;13.50;7.22;;;2.40;99.90;;;;;;5049526;28;20028;-93
2021/11/11 04:07:39;;;;;;;11.98;6.70;;;2.40;99.90;;;;;;5049978;28;20032;-93
2021/11/11 04:10:06;;;;;;;14.63;7.15;;;2.40;99.90;;;;;;5049133;28;20032;-93
2021/11/11 04:12:32;;;;;;;12.73;7.70;;;2.40;99.90;;;;;;5049191;28;20052;-93
2021/11/11 04:14:58;;;;;;;15.70;8.10;;;2.50;99.90;;;;;;5047996;28;20052;-93
2021/11/11 04:17:25;;;;;;;17.27;7.97;;;2.50;99.90;;;;;;5049420;28;20045;-93
2021/11/11 04:19:50;;;;;;;16.40;8.57;;;2.50;99.90;;;;;;5049131;28;20040;-92
2021/11/11 04:22:16;;;;;;;17.88;9.32;;;2.50;99.90;;;;;;5048920;28;20071;-93
2021/11/11 04:24:45;;;;;;;24.20;13.27;;;2.50;99.90;;;;;;5066725;28;20051;-93
2021/11/11 04:30:23;;;;;;;22.38;13.23;;;2.70;99.90;;;;;;5052503;28;20052;-94
2021/11/11 04:32:49;;;;;;;26.00;13.82;;;2.40;99.90;;;;;;5049018;28;20025;-94
2021/11/11 04:35:16;;;;;;;21.95;12.68;;;2.50;99.90;;;;;;5049081;28;20036;-94
2021/11/11 04:59:52;;;;;;;17.50;9.07;;;2.10;99.90;;;;;;5027748;28;20038;-93
2021/11/11 05:02:36;;;;;;;15.48;7.70;;;2.10;99.90;;;;;;5011213;28;20064;-93
2021/11/11 05:05:03;;;;;;;18.60;7.85;;;2.20;99.90;;;;;;5011326;28;20079;-93
2021/11/11 05:07:29;;;;;;;15.77;7.93;;;2.30;99.90;;;;;;5011293;28;20042;-92
2021/11/11 05:09:54;;;;;;;18.75;9.05;;;2.40;99.90;;;;;;5011109;28;20056;-93
2021/11/11 05:12:20;;;;;;;15.90;8.40;;;2.60;99.90;;;;;;5011120;28;20520;-93
2021/11/11 05:14:46;;;;;;;15.43;9.07;;;2.60;99.90;;;;;;5011009;28;20068;-93
2021/11/11 05:17:12;;;;;;;15.25;8.40;;;2.60;99.90;;;;;;5005044;28;20084;-93
2021/11/11 05:19:42;;;;;;;18.55;10.40;;;2.70;99.90;;;;;;5025851;28;20042;-96
2021/11/11 05:22:08;;;;;;;18.10;8.68;;;2.70;99.90;;;;;;5032792;28;20032;-93
2021/11/11 05:24:39;;;;;;;18.15;9.18;;;2.80;99.90;;;;;;5038434;28;20076;-96
2021/11/11 05:27:06;;;;;;;17.02;9.23;;;2.90;99.90;;;;;;5076961;28;20036;-96
2021/11/11 05:29:35;;;;;;;20.13;10.15;;;3.00;99.90;;;;;;5094697;28;20080;-96
2021/11/11 05:32:03;;;;;;;20.55;10.43;;;3.00;99.90;;;;;;5078620;28;20025;-96
2021/11/11 05:34:29;;;;;;;18.90;9.75;;;3.10;99.90;;;;;;5071565;28;20037;-96
2021/11/11 05:36:56;;;;;;;18.80;9.20;;;3.10;99.90;;;;;;5057498;28;20033;-96
2021/11/11 05:39:22;;;;;;;15.98;9.63;;;3.10;99.90;;;;;;5076331;28;20033;-96
2021/11/11 05:41:49;;;;;;;19.25;10.38;;;3.10;99.90;;;;;;5056349;28;20025;-95
2021/11/11 05:44:15;;;;;;;17.83;10.25;;;3.20;99.90;;;;;;5057172;28;20023;-96
2021/11/11 05:46:43;;;;;;;19.48;10.32;;;3.20;99.90;;;;;;5073828;28;20049;-95
2021/11/11 05:49:09;;;;;;;20.00;10.27;;;3.20;99.90;;;;;;5048588;28;20059;-96
2021/11/11 05:51:42;;;;;;;18.42;10.00;;;3.20;99.90;;;;;;5096656;28;20032;-96
2021/11/11 05:54:10;;;;;;;18.33;10.43;;;3.30;99.90;;;;;;5063377;28;20037;-96
2021/11/11 05:56:37;;;;;;;23.88;11.15;;;3.40;99.90;;;;;;5079334;28;20004;-96
2021/11/11 05:59:04;;;;;;;24.27;11.40;;;3.40;99.90;;;;;;5079870;28;20080;-96
2021/11/11 06:01:30;;;;;;;20.90;11.90;;;3.40;99.90;;;;;;5079494;28;20016;-96
2021/11/11 06:04:01;;;;;;;18.55;10.40;;;3.40;99.90;;;;;;5097231;28;20009;-96
2021/11/11 06:06:33;;;;;;;18.50;10.02;;;3.40;99.90;;;;;;5097203;28;20034;-96
2021/11/11 06:08:59;;;;;;;21.27;11.13;;;3.50;99.90;;;;;;5078559;28;20029;-96
2021/11/11 06:11:27;;;;;;;16.95;10.38;;;3.60;99.90;;;;;;5095579;28;20055;-96
2021/11/11 06:13:53;;;;;;;20.75;11.30;;;3.60;99.90;;;;;;5077985;28;20075;-96
2021/11/11 06:16:21;;;;;;;18.85;10.77;;;3.60;99.90;;;;;;5078810;28;20037;-96
2021/11/11 06:18:47;;;;;;;22.25;11.32;;;3.60;99.90;;;;;;5022415;28;20049;-95
2021/11/11 06:21:14;;;;;;;21.05;11.32;;;3.70;99.90;;;;;;5050793;28;20109;-95
2021/11/11 06:23:45;;;;;;;23.38;10.68;;;3.70;99.90;;;;;;5049482;28;20029;-96
2021/11/11 06:27:07;;;;;;;21.23;9.80;;;3.70;99.90;;;;;;5049087;28;20029;-94
2021/11/11 06:29:34;;;;;;;17.95;10.27;;;3.70;99.90;;;;;;5041608;28;20037;-94
2021/11/11 06:32:03;;;;;;;21.88;11.38;;;3.80;99.90;;;;;;5070531;28;20036;-96
2021/11/11 06:34:32;;;;;;;23.88;9.98;;;3.80;99.90;;;;;;5070687;28;20092;-94
2021/11/11 06:36:58;;;;;;;24.35;11.02;;;3.80;99.90;;;;;;5053289;28;20041;-96
2021/11/11 06:39:24;;;;;;;18.15;10.18;;;3.80;99.90;;;;;;5071347;28;20057;-95
2021/11/11 06:41:50;;;;;;;23.02;11.30;;;3.80;99.90;;;;;;5070482;28;20128;-95
2021/11/11 06:44:22;;;;;;;16.33;8.77;;;3.90;99.90;;;;;;5068631;28;20024;-94
2021/11/11 06:46:51;;;;;;;27.98;12.43;;;3.80;99.90;;;;;;5053400;28;20032;-96
2021/11/11 06:49:18;;;;;;;25.52;11.50;;;3.80;99.90;;;;;;5054249;28;20033;-94
2021/11/11 06:51:45;;;;;;;22.45;12.40;;;3.80;99.90;;;;;;5052071;28;20033;-95
2021/11/11 06:54:11;;;;;;;21.08;11.75;;;3.80;99.90;;;;;;5051926;28;20029;-96
2021/11/11 06:56:37;;;;;;;20.58;11.18;;;3.70;99.90;;;;;;5050655;28;20036;-95
2021/11/11 06:59:06;;;;;;;24.33;13.23;;;3.70;99.90;;;;;;5051338;28;20195;-96
2021/11/11 07:01:32;;;;;;;24.45;13.20;;;3.70;99.90;;;;;;5050395;28;20029;-94
2021/11/11 07:03:59;;;;;;;25.27;13.50;;;3.70;99.90;;;;;;5049697;28;20036;-94
2021/11/11 07:06:26;;;;;;;24.35;14.43;;;3.80;99.90;;;;;;5050086;28;20096;-94
2021/11/11 07:08:51;;;;;;;23.88;14.00;;;3.70;99.90;;;;;;5050611;28;20033;-95
2021/11/11 07:11:17;;;;;;;26.70;15.13;;;3.80;99.90;;;;;;5050427;28;20039;-94
2021/11/11 07:13:43;;;;;;;27.55;14.55;;;3.80;99.90;;;;;;5050162;28;20029;-94
2021/11/11 07:16:09;;;;;;;25.83;14.57;;;3.90;99.90;;;;;;5050449;28;20119;-93
2021/11/11 07:18:35;;;;;;;30.83;17.60;;;3.90;99.90;;;;;;5049838;28;20028;-93
2021/11/11 07:21:01;;;;;;;30.20;16.00;;;3.90;99.90;;;;;;5049489;28;20057;-94
2021/11/11 07:23:27;;;;;;;31.95;17.23;;;3.90;99.90;;;;;;5049427;28;20025;-93
2021/11/11 07:25:54;;;;;;;33.00;16.98;;;3.90;99.90;;;;;;5049643;28;20096;-93
2021/11/11 07:28:21;;;;;;;35.97;20.00;;;4.00;99.90;;;;;;5049518;28;20035;-93
2021/11/11 07:30:48;;;;;;;37.97;18.77;;;4.00;99.90;;;;;;5049579;28;20037;-93
2021/11/11 07:33:14;;;;;;;31.95;18.08;;;4.00;99.90;;;;;;5049362;28;20036;-93
2021/11/11 07:35:42;;;;;;;33.22;19.52;;;4.00;99.90;;;;;;5049318;28;20040;-92
2021/11/11 07:38:09;;;;;;;37.15;20.45;;;4.10;99.90;;;;;;5049233;28;20060;-92
2021/11/11 07:40:36;;;;;;;40.83;21.67;;;4.10;99.90;;;;;;5049133;28;20033;-93
2021/11/11 07:43:03;;;;;;;38.53;22.05;;;4.10;99.90;;;;;;5049332;28;20025;-93
2021/11/11 07:46:05;;;;;;;38.80;21.27;;;4.20;99.90;;;;;;5050942;28;20032;-92
2021/11/11 07:48:31;;;;;;;40.92;20.90;;;4.20;99.90;;;;;;4991740;28;20038;-93
2021/11/11 07:50:58;;;;;;;39.40;20.48;;;4.20;99.90;;;;;;4991954;28;20057;-93
2021/11/11 07:53:24;;;;;;;36.03;19.67;;;4.20;99.90;;;;;;4992081;28;20042;-93
2021/11/11 07:55:50;;;;;;;33.92;18.52;;;4.30;99.90;;;;;;4992246;28;20056;-94
2021/11/11 07:58:17;;;;;;;37.03;20.13;;;4.30;99.90;;;;;;4991922;28;20538;-93
2021/11/11 08:00:43;;;;;;;34.67;19.45;;;4.30;99.90;;;;;;4992118;28;20037;-93
2021/11/11 08:03:08;;;;;;;37.35;20.10;;;4.40;99.90;;;;;;4991922;28;20034;-93
2021/11/11 08:05:35;;;;;;;34.10;19.00;;;4.40;99.90;;;;;;4981616;28;20046;-92
2021/11/11 08:08:02;;;;;;;41.90;20.80;;;4.50;99.90;;;;;;4991320;28;20061;-93
2021/11/11 08:10:27;;;;;;;34.58;19.02;;;4.50;99.90;;;;;;4991920;28;20030;-93
2021/11/11 08:12:53;;;;;;;34.05;16.88;;;4.50;99.90;;;;;;4991868;28;20038;-93
2021/11/11 08:15:19;;;;;;;29.80;17.05;;;4.50;99.90;;;;;;4977458;28;20084;-93
2021/11/11 08:17:46;;;;;;;32.15;17.92;;;4.60;99.90;;;;;;4972117;28;20026;-93
2021/11/11 08:20:14;;;;;;;27.40;15.48;;;4.60;99.90;;;;;;4972265;28;20042;-94
2021/11/11 08:22:40;;;;;;;32.78;17.00;;;4.60;99.90;;;;;;4972242;28;20092;-94
2021/11/11 08:25:08;;;;;;;34.53;18.25;;;4.60;99.90;;;;;;4975790;28;20042;-92
2021/11/11 08:27:36;;;;;;;28.30;15.77;;;4.70;99.90;;;;;;4989431;28;20034;-93
2021/11/11 08:30:07;;;;;;;31.15;15.43;;;4.70;99.90;;;;;;4989343;28;20106;-93
2021/11/11 08:32:34;;;;;;;31.48;16.90;;;4.80;99.90;;;;;;4989446;28;20084;-94
2021/11/11 08:34:59;;;;;;;30.25;16.73;;;4.90;99.90;;;;;;5014261;28;20109;-93
2021/11/11 08:37:25;;;;;;;37.88;19.90;;;5.00;99.90;;;;;;5028512;28;20037;-94
2021/11/11 08:39:51;;;;;;;37.05;19.83;;;4.90;99.90;;;;;;5045621;28;20034;-93
2021/11/11 08:42:17;;;;;;;37.40;19.90;;;5.00;99.90;;;;;;5029850;28;20109;-94
2021/11/11 08:44:46;;;;;;;31.25;18.23;;;5.00;99.90;;;;;;5030068;28;20091;-95
2021/11/11 08:47:13;;;;;;;32.00;18.10;;;5.00;99.90;;;;;;5032506;28;20083;-94
2021/11/11 08:49:41;;;;;;;34.28;18.80;;;5.00;99.90;;;;;;5048240;28;20088;-94
2021/11/11 08:52:09;;;;;;;32.80;17.40;;;5.10;99.90;;;;;;5051859;28;20094;-94
2021/11/11 08:54:35;;;;;;;31.95;17.38;;;5.10;99.90;;;;;;5067986;28;20044;-93
2021/11/11 08:57:02;;;;;;;30.75;17.60;;;5.20;99.90;;;;;;5067889;28;20032;-94
2021/11/11 08:59:28;;;;;;;30.17;15.77;;;5.20;99.90;;;;;;5067816;28;20033;-92
2021/11/11 09:01:54;;;;;;;26.10;15.25;;;5.20;99.90;;;;;;5067288;28;20044;-92
2021/11/11 09:04:21;;;;;;;27.77;16.33;;;5.20;99.90;;;;;;5060474;28;20025;-92
2021/11/11 09:06:47;;;;;;;28.65;15.77;;;5.30;99.90;;;;;;5047628;28;20029;-92
2021/11/11 09:09:14;;;;;;;29.17;15.35;;;5.30;99.90;;;;;;5047812;28;20029;-92
2021/11/11 09:11:41;;;;;;;31.20;18.02;;;5.40;99.90;;;;;;5047841;28;20132;-91
2021/11/11 09:14:07;;;;;;;30.48;16.52;;;5.50;99.90;;;;;;5047476;28;20028;-92
2021/11/11 09:16:35;;;;;;;29.45;15.68;;;5.50;99.90;;;;;;5047248;28;20037;-93
2021/11/11 09:19:02;;;;;;;32.00;17.08;;;5.50;99.90;;;;;;5047675;28;20028;-93
2021/11/11 09:21:29;;;;;;;30.85;15.82;;;5.50;99.90;;;;;;5064102;28;20036;-93
2021/11/11 09:23:55;;;;;;;27.73;17.42;;;5.60;99.90;;;;;;5047875;28;20419;-93
2021/11/11 09:26:20;;;;;;;30.52;15.68;;;5.60;99.90;;;;;;5047843;28;20097;-93
2021/11/11 09:28:50;;;;;;;28.48;15.63;;;5.70;99.90;;;;;;5047880;28;20534;-93
2021/11/11 09:31:17;;;;;;;28.83;16.25;;;5.70;99.90;;;;;;5030723;28;20029;-93
2021/11/11 09:33:45;;;;;;;28.77;16.23;;;5.80;99.90;;;;;;5067305;28;20032;-93
2021/11/11 09:36:12;;;;;;;30.05;15.38;;;5.80;99.90;;;;;;5067245;28;20044;-93
2021/11/11 09:38:38;;;;;;;30.42;17.05;;;5.80;99.90;;;;;;5067608;28;20043;-93
2021/11/11 09:41:04;;;;;;;28.92;16.83;;;5.80;99.90;;;;;;5067504;28;20040;-93
2021/11/11 09:43:30;;;;;;;33.72;16.27;;;5.90;99.90;;;;;;5067685;28;20039;-94
2021/11/11 09:49:46;;;;;;;26.90;15.73;;;6.00;99.90;;;;;;5032970;28;20123;-94
2021/11/11 09:52:12;;;;;;;30.92;16.33;;;6.10;99.90;;;;;;5010531;28;20033;-94
2021/11/11 09:59:49;;;;;;;30.08;14.70;;;6.20;99.90;;;;;;5026236;28;20041;-93
2021/11/11 10:02:16;;;;;;;29.30;15.85;;;6.20;99.90;;;;;;5001797;28;20422;-92
2021/11/11 10:04:42;;;;;;;27.30;15.85;;;6.30;99.90;;;;;;4990443;28;20106;-92
2021/11/11 10:07:08;;;;;;;30.13;15.80;;;6.30;99.90;;;;;;4990636;28;20049;-92
2021/11/11 10:09:39;;;;;;;27.63;15.80;;;6.30;99.90;;;;;;5006683;28;20490;-93
2021/11/11 10:12:06;;;;;;;32.10;16.42;;;6.40;99.90;;;;;;4990335;28;20106;-93
2021/11/11 10:14:36;;;;;;;30.98;16.83;;;6.50;99.90;;;;;;4993158;28;20044;-93
2021/11/11 10:17:07;;;;;;;29.08;16.60;;;6.50;99.90;;;;;;4993831;28;20097;-93
2021/11/11 10:19:39;;;;;;;29.20;17.17;;;6.50;99.90;;;;;;4994219;28;20053;-92
2021/11/11 10:22:10;;;;;;;29.30;16.35;;;6.60;99.90;;;;;;4993942;28;20033;-92
2021/11/11 10:25:02;;;;;;;33.33;17.58;;;6.60;99.90;;;;;;4994358;28;20049;-93
2021/11/11 10:27:43;;;;;;;28.30;15.93;;;6.70;99.90;;;;;;5067635;28;20052;-93
2021/11/11 10:30:11;;;;;;;26.42;16.70;;;6.70;99.90;;;;;;5051649;28;20040;-93
2021/11/11 10:32:40;;;;;;;24.05;15.68;;;6.80;99.90;;;;;;5050638;28;20036;-92
2021/11/11 10:35:06;;;;;;;30.55;17.20;;;6.80;99.90;;;;;;5050551;28;20040;-93
2021/11/11 10:37:38;;;;;;;27.27;15.93;;;6.80;99.90;;;;;;5051745;28;20048;-93
2021/11/11 10:40:12;;;;;;;28.70;15.82;;;7.00;99.90;;;;;;5050708;28;20037;-93
2021/11/11 10:42:40;;;;;;;24.02;14.25;;;7.10;99.90;;;;;;5050551;28;20143;-93
2021/11/11 10:45:11;;;;;;;26.00;15.90;;;7.10;99.90;;;;;;5050441;28;20032;-94
2021/11/11 10:47:37;;;;;;;27.25;16.42;;;7.20;99.90;;;;;;5050389;28;20051;-92
2021/11/11 10:50:13;;;;;;;29.83;17.48;;;7.20;99.90;;;;;;5050273;28;20075;-91
2021/11/11 10:52:45;;;;;;;30.45;17.50;;;7.30;99.90;;;;;;5066776;28;20045;-93
2021/11/11 10:55:15;;;;;;;27.55;16.25;;;7.50;99.90;;;;;;5050356;28;20080;-93
2021/11/11 10:57:53;;;;;;;23.95;15.95;;;7.50;99.90;;;;;;5050320;28;20029;-92
2021/11/11 11:00:36;;;;;;;26.27;14.85;;;7.60;99.90;;;;;;5059747;28;20032;-91
2021/11/11 11:03:09;;;;;;;29.48;16.98;;;7.60;99.90;;;;;;5069564;28;20088;-91
2021/11/11 11:05:36;;;;;;;24.80;15.15;;;7.60;99.90;;;;;;5059206;28;20111;-93
2021/11/11 11:08:08;;;;;;;31.27;18.05;;;7.70;99.90;;;;;;5049738;28;20032;-91
2021/11/11 11:10:36;;;;;;;31.98;18.05;;;7.80;99.90;;;;;;5050013;28;20021;-92
2021/11/11 11:13:10;;;;;;;30.63;17.15;;;7.90;99.90;;;;;;5049740;28;20116;-92
2021/11/11 11:15:57;;;;;;;30.98;17.67;;;7.90;99.90;;;;;;5049351;28;20060;-93
2021/11/11 11:18:26;;;;;;;29.08;17.48;;;8.00;99.90;;;;;;5049595;28;20025;-93
2021/11/11 11:20:56;;;;;;;30.23;16.63;;;8.00;99.90;;;;;;5049783;28;20029;-92
2021/11/11 11:23:32;;;;;;;27.98;17.38;;;8.20;99.90;;;;;;5049415;28;20029;-91
2021/11/11 11:26:28;;;;;;;28.05;16.60;;;8.10;99.90;;;;;;5049388;28;20032;-92
2021/11/11 11:29:15;;;;;;;28.95;17.30;;;8.20;99.90;;;;;;5049571;28;20029;-93
2021/11/11 11:31:43;;;;;;;29.88;16.83;;;8.30;99.90;;;;;;5049243;28;20028;-92
2021/11/11 11:34:13;;;;;;;27.45;15.60;;;8.20;99.90;;;;;;5049335;28;20346;-92
2021/11/11 11:37:05;;;;;;;26.73;15.45;;;8.30;99.90;;;;;;5066403;28;20045;-93
2021/11/11 11:39:36;;;;;;;23.25;13.77;;;8.20;99.90;;;;;;5041240;28;20037;-92
2021/11/11 11:42:08;;;;;;;27.65;16.02;;;8.30;99.90;;;;;;5065915;28;20548;-92
2021/11/11 11:44:39;;;;;;;27.52;17.23;;;8.20;99.90;;;;;;5066143;28;20037;-93
2021/11/11 11:47:36;;;;;;;31.63;19.33;;;8.20;99.90;;;;;;5048802;28;20094;-92
2021/11/11 11:50:24;;;;;;;25.80;15.35;;;8.10;99.90;;;;;;5048942;28;20473;-93
2021/11/11 11:53:00;;;;;;;27.02;16.33;;;8.20;99.90;;;;;;5049192;28;20029;-92
2021/11/11 11:55:48;;;;;;;24.40;15.82;;;8.30;99.90;;;;;;5049292;28;20041;-92
2021/11/11 12:01:04;;;;;;;31.48;18.52;;;8.30;99.90;;;;;;5067671;28;20461;-91
2021/11/11 12:06:29;;;;;;;28.15;16.33;;;8.30;99.90;;;;;;5065156;28;20043;-92
2021/11/11 12:14:33;;;;;;;28.00;16.85;;;8.30;99.90;;;;;;5064849;28;20452;-91
2021/11/11 12:17:46;;;;;;;27.42;17.83;;;8.40;99.90;;;;;;5048233;28;20036;-90
2021/11/11 12:41:09;;;;;;;30.00;19.65;;;8.40;99.90;;;;;;4914379;29;20138;-91
2021/11/11 12:43:34;;;;;;;28.15;18.85;;;8.40;99.90;;;;;;4943571;29;20078;-90
2021/11/11 12:46:03;;;;;;;30.20;18.55;;;8.40;99.90;;;;;;4948786;29;20035;-88
2021/11/11 12:48:30;;;;;;;29.75;19.60;;;8.50;99.90;;;;;;4948821;29;20547;-91
2021/11/11 12:50:59;;;;;;;28.30;18.23;;;8.40;99.90;;;;;;4949591;29;20357;-91
2021/11/11 12:53:31;;;;;;;29.80;17.77;;;8.50;99.90;;;;;;4949373;29;20043;-90
2021/11/11 12:55:59;;;;;;;27.70;15.90;;;8.60;99.90;;;;;;4959443;28;20069;-92
2021/11/11 12:58:37;;;;;;;22.33;15.63;;;8.60;99.90;;;;;;4952229;28;20041;-92
2021/11/11 13:01:05;;;;;;;23.70;15.05;;;8.60;99.90;;;;;;4968278;28;20045;-92
2021/11/11 13:03:52;;;;;;;27.20;16.90;;;8.70;99.90;;;;;;4984331;28;20031;-90
2021/11/11 13:06:42;;;;;;;22.67;14.43;;;8.70;99.90;;;;;;4952356;28;20047;-91
2021/11/11 13:09:19;;;;;;;24.00;14.82;;;8.70;99.90;;;;;;4949083;29;20118;-91
2021/11/11 13:12:17;;;;;;;26.80;17.23;;;8.70;99.90;;;;;;4965204;29;20128;-91
2021/11/11 13:14:51;;;;;;;23.10;16.08;;;8.80;99.90;;;;;;4985842;28;20056;-91
2021/11/11 13:17:18;;;;;;;25.17;16.58;;;8.80;99.90;;;;;;5047707;28;20068;-92
2021/11/11 13:20:00;;;;;;;26.30;17.00;;;8.80;99.90;;;;;;5047449;28;20102;-91
2021/11/11 13:22:42;;;;;;;27.17;18.27;;;8.80;99.90;;;;;;5064075;28;20041;-91
2021/11/11 14:02:16;;;;;;;29.48;17.27;;;9.20;99.90;;;;;;5067647;28;20419;-91
2021/11/11 15:14:42;;;;;;;23.92;16.60;;;8.90;99.90;;;;;;5066396;28;20104;-91
2021/11/11 16:02:33;;;;;;;28.83;16.42;;;8.50;99.90;;;;;;4986310;28;20038;-91
2021/11/11 16:24:28;;;;;;;29.60;17.30;;;8.10;99.90;;;;;;5022572;28;20048;-92
2021/11/11 16:26:55;;;;;;;30.92;17.15;;;8.10;99.90;;;;;;5048700;28;20040;-92
2021/11/11 16:29:23;;;;;;;27.27;17.08;;;8.10;99.90;;;;;;5049290;28;20033;-92
2021/11/11 16:31:49;;;;;;;28.02;17.23;;;8.10;99.90;;;;;;5065285;28;20093;-91
2021/11/11 16:34:15;;;;;;;26.50;16.60;;;8.10;99.90;;;;;;5048825;28;20036;-92
2021/11/11 16:36:41;;;;;;;29.92;18.20;;;8.00;99.90;;;;;;5048649;28;20051;-91
2021/11/11 16:39:09;;;;;;;26.13;16.38;;;8.10;99.90;;;;;;5048553;28;20033;-91
2021/11/11 16:41:36;;;;;;;30.58;16.80;;;8.10;99.90;;;;;;5048457;28;20186;-91
2021/11/11 16:47:13;;;;;;;26.02;15.73;;;8.00;99.90;;;;;;5074768;28;20020;-91
2021/11/11 16:49:38;;;;;;;27.23;15.55;;;8.00;99.90;;;;;;5068296;28;20102;-91
2021/11/11 16:52:05;;;;;;;26.63;15.75;;;8.00;99.90;;;;;;5068561;28;20053;-91
2021/11/11 16:54:30;;;;;;;28.85;16.50;;;8.00;99.90;;;;;;5068302;28;20055;-91
2021/11/11 16:56:56;;;;;;;23.15;16.40;;;8.00;99.90;;;;;;5068376;28;20504;-91